Аэропорт: Кневичи. Владивосток

ICAO: UHWW

METAR:
2018/09/23 11:00
UHWW 231100Z 08004MPS 9999 BKN016CB 12/12 Q1012 R25L/290160 NOSIG RMK QFE758
METAR:
2018/09/23 09:32
TAF 
      AMD UHWW 230830Z 2309/2409 32003MPS 3100 -SHRA SCT011 BKN017CB 
      TEMPO 2309/2312 -TSRA 
      BECMG 2403/2405 9999 NSW SCT020CB